Time;durP1;ratioP1;P1;durP2;ratioP2;P2;SDS_P1;SDS_P2;PMS_P1;PMS_P2;Temp;Humidity;BMP_temperature;BMP_pressure;BME280_temperature;BME280_humidity;BME280_pressure;Samples;Min_cycle;Max_cycle;Signal;HPM_P1;HPM_P2
2021/08/01 00:00:07;;;;;;;16.17;10.00;;;24.90;63.30;;;;;;5056379;28;20420;-51
2021/08/01 00:02:33;;;;;;;14.40;9.95;;;24.90;63.20;;;;;;5056656;28;20036;-48
2021/08/01 00:04:58;;;;;;;17.48;9.43;;;24.80;63.30;;;;;;5056137;28;20020;-51
2021/08/01 00:07:24;;;;;;;12.82;9.30;;;24.80;63.30;;;;;;5056534;28;20036;-44
2021/08/01 00:09:50;;;;;;;12.15;10.15;;;24.80;63.30;;;;;;5055964;28;20378;-43
2021/08/01 00:12:17;;;;;;;13.18;9.50;;;24.80;63.50;;;;;;5056227;28;20310;-45
2021/08/01 00:14:43;;;;;;;13.30;9.25;;;24.80;63.60;;;;;;5055860;28;20033;-48
2021/08/01 00:17:08;;;;;;;18.30;9.63;;;24.80;63.60;;;;;;5056197;28;20040;-49
2021/08/01 00:19:35;;;;;;;12.43;8.98;;;24.80;63.60;;;;;;5055808;28;20029;-44
2021/08/01 00:22:00;;;;;;;13.55;9.32;;;24.80;63.70;;;;;;5055028;28;20417;-47
2021/08/01 00:24:26;;;;;;;13.07;8.98;;;24.70;63.70;;;;;;5055951;28;20068;-48
2021/08/01 00:26:52;;;;;;;16.38;8.82;;;24.70;63.70;;;;;;5055898;28;20151;-47
2021/08/01 00:29:18;;;;;;;11.05;8.40;;;24.70;63.50;;;;;;5055960;28;20024;-46
2021/08/01 00:31:44;;;;;;;18.13;8.80;;;24.80;63.40;;;;;;5055929;28;20029;-50
2021/08/01 00:34:09;;;;;;;11.48;8.32;;;24.80;63.30;;;;;;5055580;28;20037;-52
2021/08/01 00:36:35;;;;;;;10.80;8.73;;;24.80;63.10;;;;;;5056004;28;20074;-49
2021/08/01 00:39:00;;;;;;;10.10;8.07;;;24.80;63.00;;;;;;5055917;28;20090;-48
2021/08/01 00:41:26;;;;;;;10.60;8.07;;;24.80;62.80;;;;;;5055522;28;20036;-44
2021/08/01 00:43:52;;;;;;;16.88;8.55;;;24.80;62.80;;;;;;5056062;28;20041;-51
2021/08/01 00:46:17;;;;;;;10.50;8.60;;;24.80;62.70;;;;;;5055558;28;20040;-45
2021/08/01 00:48:43;;;;;;;16.67;9.07;;;24.80;62.60;;;;;;5056075;28;20032;-51
2021/08/01 00:51:09;;;;;;;12.07;8.68;;;24.80;62.60;;;;;;5055696;28;20025;-52
2021/08/01 00:53:35;;;;;;;10.02;8.52;;;24.70;62.50;;;;;;5055651;28;20036;-48
2021/08/01 00:56:01;;;;;;;10.52;8.55;;;24.70;62.40;;;;;;5055725;28;20082;-45
2021/08/01 00:58:27;;;;;;;10.13;8.55;;;24.70;62.40;;;;;;5055564;28;20090;-47
2021/08/01 01:03:55;;;;;;;10.98;8.48;;;24.70;62.50;;;;;;5055871;28;20043;-44
2021/08/01 01:06:33;;;;;;;11.05;7.97;;;24.60;62.40;;;;;;5054208;28;20040;-48
2021/08/01 01:09:03;;;;;;;11.77;7.90;;;24.60;62.30;;;;;;5055944;28;20579;-45
2021/08/01 01:11:35;;;;;;;11.90;7.72;;;24.60;62.40;;;;;;5055368;28;20108;-44
2021/08/01 01:14:03;;;;;;;11.68;8.27;;;24.60;62.40;;;;;;5055888;28;20052;-44
2021/08/01 01:16:36;;;;;;;11.65;8.00;;;24.60;62.20;;;;;;5055349;28;20702;-44
2021/08/01 01:19:02;;;;;;;11.57;8.23;;;24.50;62.20;;;;;;5055869;28;20037;-44
2021/08/01 01:21:55;;;;;;;14.00;8.07;;;24.50;62.10;;;;;;5055191;28;20021;-49
2021/08/01 01:24:27;;;;;;;10.65;7.75;;;24.50;62.00;;;;;;5055324;28;20325;-47
2021/08/01 01:27:20;;;;;;;9.55;7.50;;;24.50;62.10;;;;;;5055627;28;20071;-50
2021/08/01 01:29:53;;;;;;;11.32;8.43;;;24.50;62.10;;;;;;5055194;28;20027;-46
2021/08/01 01:32:34;;;;;;;10.93;7.50;;;24.40;62.20;;;;;;5055449;28;20033;-48
2021/08/01 01:35:12;;;;;;;12.23;8.18;;;24.40;62.10;;;;;;5055016;28;20045;-47
2021/08/01 01:37:38;;;;;;;12.85;7.75;;;24.40;62.20;;;;;;5055486;28;20070;-51
2021/08/01 01:40:07;;;;;;;13.88;7.80;;;24.40;62.30;;;;;;5054824;28;20048;-47
2021/08/01 01:42:34;;;;;;;14.10;8.48;;;24.30;62.20;;;;;;5055297;28;20043;-44
2021/08/01 01:45:01;;;;;;;9.75;7.60;;;24.30;62.20;;;;;;5054950;28;20028;-49
2021/08/01 01:47:27;;;;;;;11.70;7.68;;;24.30;62.20;;;;;;5055299;28;20025;-47
2021/08/01 01:49:57;;;;;;;10.68;7.88;;;24.30;62.20;;;;;;5055105;28;20298;-49
2021/08/01 01:52:25;;;;;;;11.00;8.07;;;24.30;62.30;;;;;;5055479;28;20352;-48
2021/08/01 01:54:52;;;;;;;10.52;8.35;;;24.30;62.20;;;;;;5054872;28;20116;-49
2021/08/01 01:57:18;;;;;;;13.43;8.43;;;24.30;62.10;;;;;;5055223;28;20076;-45
2021/08/01 01:59:45;;;;;;;14.02;7.47;;;24.30;62.10;;;;;;5055196;28;20052;-47
2021/08/01 02:02:10;;;;;;;10.25;7.65;;;24.30;62.30;;;;;;5055097;28;20037;-51
2021/08/01 02:04:37;;;;;;;10.50;7.93;;;24.20;62.30;;;;;;5055103;28;20021;-47
2021/08/01 02:07:04;;;;;;;9.20;7.63;;;24.20;62.20;;;;;;5055276;28;20037;-43
2021/08/01 02:09:45;;;;;;;9.70;7.10;;;24.20;62.20;;;;;;5054892;28;20107;-42
2021/08/01 02:12:28;;;;;;;10.90;8.55;;;24.20;62.10;;;;;;5058901;28;20403;-47
2021/08/01 02:15:07;;;;;;;10.85;7.10;;;24.20;62.30;;;;;;5058213;28;20321;-48
2021/08/01 02:17:48;;;;;;;9.13;7.38;;;24.20;62.40;;;;;;5058305;28;20056;-48
2021/08/01 02:20:17;;;;;;;11.52;8.05;;;24.10;62.50;;;;;;5058128;28;20112;-50
2021/08/01 02:22:45;;;;;;;11.85;8.38;;;24.10;62.70;;;;;;5058738;28;20094;-49
2021/08/01 02:25:12;;;;;;;10.68;7.93;;;24.10;62.70;;;;;;5057865;28;20036;-44
2021/08/01 02:27:39;;;;;;;13.20;7.43;;;24.10;62.50;;;;;;5058604;28;20064;-44
2021/08/01 02:30:05;;;;;;;13.57;8.05;;;24.10;62.80;;;;;;5058567;28;20313;-44
2021/08/01 02:32:32;;;;;;;10.57;8.15;;;24.10;62.90;;;;;;5058414;28;20055;-43
2021/08/01 02:35:00;;;;;;;11.50;7.80;;;24.10;62.80;;;;;;5058329;28;20071;-51
2021/08/01 02:37:27;;;;;;;10.57;7.38;;;24.10;62.90;;;;;;5058217;28;20120;-48
2021/08/01 02:39:54;;;;;;;10.38;7.60;;;24.10;62.90;;;;;;5057770;28;20049;-48
2021/08/01 02:42:22;;;;;;;10.23;7.72;;;24.10;62.90;;;;;;5058007;28;20143;-44
2021/08/01 02:44:50;;;;;;;11.88;8.00;;;24.00;62.60;;;;;;5057773;28;20025;-51
2021/08/01 02:47:18;;;;;;;9.68;8.40;;;24.00;62.70;;;;;;5057913;28;20045;-47
2021/08/01 02:49:46;;;;;;;13.38;8.27;;;24.00;63.00;;;;;;5057930;28;20025;-45
2021/08/01 02:52:28;;;;;;;12.05;8.48;;;24.00;63.00;;;;;;5057947;28;20123;-44
2021/08/01 02:54:54;;;;;;;10.95;8.00;;;23.90;62.90;;;;;;5057621;28;20033;-44
2021/08/01 02:57:23;;;;;;;12.70;7.50;;;23.90;63.00;;;;;;5057683;28;20037;-48
2021/08/01 02:59:49;;;;;;;10.77;7.65;;;23.90;62.90;;;;;;5057460;28;20038;-46
2021/08/01 03:02:16;;;;;;;12.15;7.70;;;23.90;62.80;;;;;;5057470;28;20064;-47
2021/08/01 03:04:43;;;;;;;11.65;8.80;;;23.90;63.00;;;;;;5057274;28;20352;-47
2021/08/01 03:07:13;;;;;;;11.77;7.60;;;23.90;63.10;;;;;;5057368;28;20116;-48
2021/08/01 03:09:39;;;;;;;11.38;8.10;;;23.90;63.00;;;;;;5057569;28;20429;-44
2021/08/01 03:12:15;;;;;;;11.50;7.55;;;23.90;62.80;;;;;;5057551;28;20094;-48
2021/08/01 03:14:41;;;;;;;9.88;7.82;;;24.00;62.70;;;;;;5057293;28;20063;-51
2021/08/01 03:17:07;;;;;;;14.90;8.57;;;23.90;63.40;;;;;;5057131;28;20078;-49
2021/08/01 03:19:39;;;;;;;13.90;9.35;;;24.00;62.80;;;;;;5057293;28;20094;-44
2021/08/01 03:22:05;;;;;;;15.20;9.70;;;24.00;62.90;;;;;;5056968;28;20401;-47
2021/08/01 03:24:31;;;;;;;19.58;10.55;;;24.00;62.70;;;;;;5056888;28;20021;-44
2021/08/01 03:26:57;;;;;;;15.15;9.57;;;24.10;62.70;;;;;;5057135;28;20048;-47
2021/08/01 03:29:23;;;;;;;12.27;9.95;;;24.10;62.60;;;;;;5055642;28;20451;-47
2021/08/01 03:31:48;;;;;;;12.93;8.15;;;24.10;62.40;;;;;;5056808;28;20056;-47
2021/08/01 03:34:14;;;;;;;10.60;8.70;;;24.20;62.20;;;;;;5057029;28;20088;-51
2021/08/01 03:36:40;;;;;;;13.45;7.78;;;24.20;62.10;;;;;;5056906;28;20029;-52
2021/08/01 03:39:05;;;;;;;16.60;9.32;;;24.30;62.10;;;;;;5056531;28;20049;-50
2021/08/01 03:41:31;;;;;;;12.90;8.35;;;24.30;62.00;;;;;;5056744;28;20021;-45
2021/08/01 03:43:57;;;;;;;11.15;7.47;;;24.40;62.10;;;;;;5057089;28;20029;-44
2021/08/01 03:46:23;;;;;;;11.80;8.13;;;24.40;62.00;;;;;;5056531;28;20025;-47
2021/08/01 03:48:48;;;;;;;12.70;8.75;;;24.50;62.00;;;;;;5057122;28;20356;-46
2021/08/01 03:51:14;;;;;;;11.82;8.23;;;24.50;61.80;;;;;;5056352;28;20115;-48
2021/08/01 03:53:40;;;;;;;10.93;8.45;;;24.60;61.80;;;;;;5056873;28;20036;-50
2021/08/01 03:56:06;;;;;;;15.30;8.50;;;24.70;61.80;;;;;;5056509;28;20523;-44
2021/08/01 03:58:31;;;;;;;15.57;9.25;;;24.70;61.60;;;;;;5056712;28;20128;-49
2021/08/01 04:00:58;;;;;;;12.13;8.15;;;24.80;61.60;;;;;;5056604;28;20110;-43
2021/08/01 04:03:23;;;;;;;13.75;8.30;;;24.90;61.60;;;;;;5055333;28;20124;-49
2021/08/01 04:05:49;;;;;;;14.55;8.57;;;24.90;61.10;;;;;;5056383;28;20116;-51
2021/08/01 04:08:15;;;;;;;15.88;8.35;;;25.00;60.70;;;;;;5056396;28;20025;-46
2021/08/01 04:10:40;;;;;;;13.60;9.27;;;25.00;60.70;;;;;;5056509;28;20033;-43
2021/08/01 04:13:06;;;;;;;11.07;8.25;;;25.00;60.70;;;;;;5055825;28;20044;-49
2021/08/01 04:15:32;;;;;;;11.90;8.68;;;25.00;60.90;;;;;;5055917;28;20032;-49
2021/08/01 04:17:58;;;;;;;12.65;9.30;;;25.00;61.10;;;;;;5056184;28;20393;-51
2021/08/01 04:20:24;;;;;;;16.23;9.68;;;25.00;61.50;;;;;;5055668;28;20029;-47
2021/08/01 04:22:53;;;;;;;14.20;9.43;;;25.00;61.80;;;;;;5056333;28;20044;-48
2021/08/01 04:25:20;;;;;;;14.03;9.87;;;25.00;62.10;;;;;;5055849;28;20033;-43
2021/08/01 04:27:45;;;;;;;16.02;9.68;;;25.00;62.40;;;;;;5056277;28;20037;-42
2021/08/01 04:30:11;;;;;;;15.43;9.40;;;25.10;62.60;;;;;;5055620;28;20029;-48
2021/08/01 04:32:37;;;;;;;12.65;9.50;;;25.10;62.80;;;;;;5055434;28;20025;-45
2021/08/01 04:35:04;;;;;;;12.50;9.90;;;25.10;63.00;;;;;;5055657;28;20036;-43
2021/08/01 04:37:30;;;;;;;14.25;9.30;;;25.10;63.00;;;;;;5055662;28;20044;-43
2021/08/01 04:39:55;;;;;;;13.15;9.75;;;25.10;63.10;;;;;;5055436;28;20053;-47
2021/08/01 04:42:21;;;;;;;20.02;10.35;;;25.10;63.30;;;;;;5055835;28;20345;-43
2021/08/01 04:44:47;;;;;;;12.85;9.70;;;25.20;64.20;;;;;;5055482;28;20029;-43
2021/08/01 04:47:13;;;;;;;15.57;10.20;;;25.20;63.40;;;;;;5055652;28;20040;-43
2021/08/01 04:49:39;;;;;;;12.23;9.68;;;25.20;63.40;;;;;;5055613;28;20029;-43
2021/08/01 04:52:05;;;;;;;14.45;10.30;;;25.30;63.70;;;;;;5055745;28;20082;-44
2021/08/01 04:54:34;;;;;;;17.42;11.00;;;25.30;63.60;;;;;;5055551;28;20040;-44
2021/08/01 04:57:00;;;;;;;16.10;10.35;;;25.40;63.30;;;;;;5055415;28;20040;-48
2021/08/01 04:59:25;;;;;;;15.57;10.63;;;25.40;63.10;;;;;;5055612;28;20136;-44
2021/08/01 05:01:51;;;;;;;14.57;10.43;;;25.40;63.00;;;;;;5055447;28;20318;-45
2021/08/01 05:04:17;;;;;;;16.08;10.45;;;25.50;63.10;;;;;;5055396;28;20429;-44
2021/08/01 05:06:42;;;;;;;18.58;11.00;;;25.50;63.20;;;;;;5055685;28;20029;-49
2021/08/01 05:09:08;;;;;;;14.70;10.25;;;25.50;63.20;;;;;;5055235;28;20317;-46
2021/08/01 05:11:34;;;;;;;17.70;10.93;;;25.60;63.30;;;;;;5055560;28;20033;-46
2021/08/01 05:13:59;;;;;;;21.75;10.38;;;25.60;63.30;;;;;;5054908;28;20043;-43
2021/08/01 05:16:25;;;;;;;18.77;9.85;;;25.70;63.50;;;;;;5055270;28;20060;-50
2021/08/01 05:18:50;;;;;;;15.88;10.18;;;25.70;63.40;;;;;;5055493;28;20033;-48
2021/08/01 05:21:23;;;;;;;16.08;10.05;;;25.80;63.30;;;;;;5055322;28;20029;-49
2021/08/01 05:23:49;;;;;;;14.55;10.63;;;25.90;63.50;;;;;;5055509;28;20104;-44
2021/08/01 05:26:16;;;;;;;12.98;9.85;;;25.90;63.40;;;;;;5055448;28;20025;-46
2021/08/01 05:28:41;;;;;;;14.43;9.43;;;26.00;63.50;;;;;;5055361;28;20033;-45
2021/08/01 05:31:07;;;;;;;13.63;10.50;;;26.00;63.40;;;;;;5055134;28;20025;-47
2021/08/01 05:33:33;;;;;;;14.80;9.35;;;26.10;63.40;;;;;;5055367;28;20083;-44
2021/08/01 05:36:05;;;;;;;14.60;10.98;;;26.20;63.50;;;;;;5055177;28;20048;-48
2021/08/01 05:38:30;;;;;;;13.48;10.48;;;26.30;63.40;;;;;;5055157;28;20057;-47
2021/08/01 05:40:56;;;;;;;14.85;9.32;;;26.30;63.30;;;;;;5055439;28;20033;-47
2021/08/01 05:43:22;;;;;;;13.43;10.50;;;26.40;63.20;;;;;;5055097;28;20325;-46
2021/08/01 05:45:47;;;;;;;16.58;10.20;;;26.50;62.90;;;;;;5058383;28;20084;-49
2021/08/01 05:48:13;;;;;;;13.43;9.90;;;26.60;63.10;;;;;;5059070;28;20087;-46
2021/08/01 05:50:38;;;;;;;14.95;10.23;;;26.60;63.00;;;;;;5058951;28;20107;-43
2021/08/01 05:53:04;;;;;;;14.52;9.85;;;26.60;63.00;;;;;;5058931;28;20037;-47
2021/08/01 05:55:30;;;;;;;14.63;10.45;;;26.70;63.10;;;;;;5058303;28;20037;-47
2021/08/01 05:57:55;;;;;;;15.13;10.32;;;26.80;63.30;;;;;;5058476;28;20048;-43
2021/08/01 06:00:21;;;;;;;11.40;9.95;;;26.90;63.20;;;;;;5058349;28;20036;-45
2021/08/01 06:02:47;;;;;;;14.95;9.73;;;27.00;63.10;;;;;;5058307;28;20067;-43
2021/08/01 06:05:12;;;;;;;14.15;9.52;;;27.10;63.10;;;;;;5057947;28;20053;-47
2021/08/01 06:07:38;;;;;;;14.52;10.00;;;27.20;62.60;;;;;;5058395;28;20029;-48
2021/08/01 06:10:04;;;;;;;18.15;9.88;;;27.30;62.30;;;;;;5058287;28;20029;-44
2021/08/01 06:12:29;;;;;;;16.08;9.82;;;27.50;62.60;;;;;;5058508;28;20033;-45
2021/08/01 06:14:55;;;;;;;22.80;10.02;;;27.60;62.80;;;;;;5058237;28;20047;-45
2021/08/01 06:17:22;;;;;;;18.58;13.60;;;27.70;62.40;;;;;;5058453;28;20292;-44
2021/08/01 06:19:47;;;;;;;19.92;11.23;;;27.80;62.10;;;;;;5058125;28;20133;-45
2021/08/01 06:22:15;;;;;;;13.02;9.93;;;28.00;61.90;;;;;;5058296;28;20124;-49
2021/08/01 06:24:40;;;;;;;16.45;9.90;;;28.10;61.70;;;;;;5058050;28;20476;-44
2021/08/01 06:27:06;;;;;;;14.05;10.20;;;28.20;61.80;;;;;;5058264;28;20056;-48
2021/08/01 06:29:32;;;;;;;10.75;9.20;;;28.30;61.60;;;;;;5057791;28;20032;-49
2021/08/01 06:31:58;;;;;;;12.63;9.50;;;28.40;61.40;;;;;;5057665;28;20159;-48
2021/08/01 06:34:23;;;;;;;11.50;9.38;;;28.50;61.30;;;;;;5057924;28;20068;-50
2021/08/01 06:36:50;;;;;;;14.60;9.57;;;28.60;61.40;;;;;;5057609;28;20038;-48
2021/08/01 06:39:15;;;;;;;13.40;8.82;;;28.60;60.30;;;;;;5057286;28;20041;-43
2021/08/01 06:41:41;;;;;;;13.40;8.88;;;28.70;59.90;;;;;;5057748;28;20112;-47
2021/08/01 06:44:06;;;;;;;12.90;8.43;;;28.70;59.90;;;;;;5057842;28;20412;-43
2021/08/01 06:46:32;;;;;;;10.88;8.38;;;28.70;58.90;;;;;;5057970;28;20032;-49
2021/08/01 06:48:58;;;;;;;20.05;10.07;;;28.70;58.20;;;;;;5057979;28;20033;-44
2021/08/01 06:51:23;;;;;;;15.07;9.50;;;28.70;58.10;;;;;;5057694;28;20025;-48
2021/08/01 06:53:49;;;;;;;10.90;9.60;;;28.70;58.20;;;;;;5057819;28;20104;-44
2021/08/01 06:56:15;;;;;;;13.15;9.57;;;28.70;58.40;;;;;;5056795;28;20039;-48
2021/08/01 06:58:40;;;;;;;15.13;10.00;;;28.70;58.70;;;;;;5057729;28;20041;-43
2021/08/01 07:01:06;;;;;;;14.15;9.45;;;28.70;58.70;;;;;;5056714;28;20033;-45
2021/08/01 07:03:31;;;;;;;17.02;9.32;;;28.70;58.70;;;;;;5057533;28;20119;-44
2021/08/01 07:05:57;;;;;;;13.45;9.10;;;28.70;58.50;;;;;;5057018;28;20025;-43
2021/08/01 07:08:23;;;;;;;13.02;8.68;;;28.70;58.30;;;;;;5057020;28;20040;-46
2021/08/01 07:10:48;;;;;;;16.20;10.48;;;28.80;58.50;;;;;;5057020;28;20029;-48
2021/08/01 07:13:14;;;;;;;11.70;8.38;;;28.80;58.10;;;;;;5057179;28;20040;-47
2021/08/01 07:15:40;;;;;;;16.88;9.20;;;28.90;57.70;;;;;;5057343;28;20079;-45
2021/08/01 07:18:07;;;;;;;13.98;8.73;;;28.90;58.00;;;;;;5057046;28;20428;-50
2021/08/01 07:20:33;;;;;;;13.73;8.38;;;29.00;57.70;;;;;;5057220;28;20040;-48
2021/08/01 07:22:59;;;;;;;11.27;8.07;;;29.00;57.40;;;;;;5057299;28;20037;-45
2021/08/01 07:25:25;;;;;;;14.43;8.45;;;29.10;57.10;;;;;;5056544;28;20474;-45
2021/08/01 07:27:51;;;;;;;13.30;8.20;;;29.10;56.20;;;;;;5057087;28;20029;-45
2021/08/01 07:30:17;;;;;;;12.75;7.97;;;29.20;56.10;;;;;;5056890;28;20029;-44
2021/08/01 07:32:45;;;;;;;11.10;7.80;;;29.30;55.60;;;;;;5056936;28;20025;-46
2021/08/01 07:35:10;;;;;;;9.82;8.48;;;29.30;55.70;;;;;;5056734;28;20032;-43
2021/08/01 07:37:36;;;;;;;13.00;8.55;;;29.30;55.70;;;;;;5056950;28;20431;-46
2021/08/01 07:40:03;;;;;;;12.82;8.07;;;29.40;56.00;;;;;;5056231;28;20177;-50
2021/08/01 07:42:29;;;;;;;11.20;8.10;;;29.50;56.20;;;;;;5056836;28;20120;-49
2021/08/01 07:44:57;;;;;;;9.75;7.93;;;29.60;56.00;;;;;;5056316;28;20501;-47
2021/08/01 07:47:24;;;;;;;12.27;7.97;;;29.70;55.80;;;;;;5056320;28;20048;-47
2021/08/01 07:49:51;;;;;;;14.40;8.18;;;29.70;55.50;;;;;;5056689;28;20025;-51
2021/08/01 07:52:18;;;;;;;11.23;8.45;;;29.90;55.90;;;;;;5056410;28;20029;-52
2021/08/01 07:54:44;;;;;;;14.23;7.50;;;29.90;55.30;;;;;;5055961;28;20060;-46
2021/08/01 07:57:27;;;;;;;9.70;7.88;;;30.00;55.70;;;;;;5056237;28;20413;-47
2021/08/01 07:59:54;;;;;;;20.73;8.48;;;30.10;55.30;;;;;;5056110;28;20036;-45
2021/08/01 08:02:21;;;;;;;10.45;7.35;;;30.20;54.10;;;;;;5056205;28;20040;-45
2021/08/01 08:04:48;;;;;;;10.48;7.22;;;30.30;53.50;;;;;;5056167;28;20029;-43
2021/08/01 08:07:14;;;;;;;10.35;7.30;;;30.30;53.40;;;;;;5055476;28;20112;-48
2021/08/01 08:09:39;;;;;;;8.90;6.97;;;30.40;52.40;;;;;;5055207;28;20497;-47
2021/08/01 08:12:05;;;;;;;12.30;7.68;;;30.40;52.00;;;;;;5056255;28;20131;-49
2021/08/01 08:14:31;;;;;;;12.57;7.60;;;30.50;51.90;;;;;;5055698;28;20106;-44
2021/08/01 08:16:58;;;;;;;9.40;7.13;;;30.60;52.00;;;;;;5055964;28;20025;-49
2021/08/01 08:19:23;;;;;;;10.88;7.03;;;30.70;51.60;;;;;;5055777;28;20029;-47
2021/08/01 08:21:49;;;;;;;19.95;7.30;;;30.70;51.10;;;;;;5055846;28;20444;-46
2021/08/01 08:24:15;;;;;;;24.80;7.25;;;30.80;49.30;;;;;;5055526;28;20020;-48
2021/08/01 08:26:40;;;;;;;9.80;6.75;;;30.90;49.20;;;;;;5055912;28;20032;-44
2021/08/01 08:29:06;;;;;;;13.13;6.78;;;30.90;49.10;;;;;;5054397;28;20021;-49
2021/08/01 08:31:32;;;;;;;10.13;7.05;;;31.00;49.30;;;;;;5055679;28;20048;-43
2021/08/01 08:33:57;;;;;;;26.65;7.43;;;31.00;48.60;;;;;;5055742;28;20029;-49
2021/08/01 08:36:23;;;;;;;11.45;6.80;;;31.10;48.50;;;;;;5055345;28;20047;-47
2021/08/01 08:38:49;;;;;;;12.05;6.85;;;31.10;48.50;;;;;;5055419;28;20057;-42
2021/08/01 08:41:16;;;;;;;18.35;7.82;;;31.20;48.10;;;;;;5055280;28;20025;-42
2021/08/01 08:43:42;;;;;;;9.10;6.80;;;31.30;48.20;;;;;;5055351;28;20076;-42
2021/08/01 08:46:10;;;;;;;14.60;7.53;;;31.30;48.50;;;;;;5055105;28;20033;-45
2021/08/01 08:48:38;;;;;;;8.93;6.05;;;31.30;48.50;;;;;;5055709;28;20437;-44
2021/08/01 08:51:09;;;;;;;8.20;6.50;;;31.40;48.70;;;;;;5055171;28;20033;-44
2021/08/01 08:53:45;;;;;;;10.80;6.95;;;31.40;48.60;;;;;;5055510;28;20108;-44
2021/08/01 08:56:13;;;;;;;9.43;6.50;;;31.50;48.40;;;;;;5054005;28;20076;-46
2021/08/01 08:58:40;;;;;;;14.95;6.70;;;31.50;47.90;;;;;;5055467;28;20037;-47
2021/08/01 09:01:06;;;;;;;11.85;6.43;;;31.50;48.00;;;;;;5054960;28;20360;-43
2021/08/01 09:03:33;;;;;;;8.55;6.53;;;31.60;48.20;;;;;;5055343;28;20082;-46
2021/08/01 09:05:59;;;;;;;10.98;7.47;;;31.60;47.50;;;;;;5037994;28;20112;-47
2021/08/01 09:08:26;;;;;;;20.10;13.32;;;31.70;48.00;;;;;;5054979;28;20083;-47
2021/08/01 09:10:53;;;;;;;20.00;16.80;;;31.70;46.60;;;;;;5055238;28;20033;-49
2021/08/01 09:13:48;;;;;;;12.40;6.97;;;31.80;46.90;;;;;;5055195;28;20309;-51
2021/08/01 09:16:15;;;;;;;10.73;6.25;;;31.80;46.00;;;;;;5054966;28;20059;-42
2021/08/01 09:18:42;;;;;;;11.50;7.60;;;31.90;45.70;;;;;;5055448;28;20041;-49
2021/08/01 09:21:08;;;;;;;8.73;6.15;;;31.90;45.70;;;;;;5059329;28;20033;-46
2021/08/01 09:23:36;;;;;;;9.57;6.25;;;31.90;45.50;;;;;;5059791;28;20135;-48
2021/08/01 09:26:05;;;;;;;10.88;6.13;;;32.00;45.10;;;;;;5059005;28;20091;-42
2021/08/01 09:28:32;;;;;;;12.50;6.83;;;32.10;44.40;;;;;;5059598;28;20295;-43
2021/08/01 09:31:03;;;;;;;16.00;7.15;;;32.10;44.70;;;;;;5059155;28;20296;-45
2021/08/01 09:33:44;;;;;;;10.07;7.07;;;32.10;44.90;;;;;;5059145;28;20040;-47
2021/08/01 09:36:15;;;;;;;9.90;6.60;;;32.20;44.80;;;;;;5058748;28;20444;-44
2021/08/01 09:38:53;;;;;;;12.13;6.72;;;32.20;44.30;;;;;;5058570;28;20139;-46
2021/08/01 09:41:21;;;;;;;7.90;6.20;;;32.30;44.10;;;;;;5058991;28;20356;-45
2021/08/01 09:43:52;;;;;;;11.30;6.75;;;32.30;43.90;;;;;;5059166;28;20124;-47
2021/08/01 09:46:19;;;;;;;16.83;6.40;;;32.30;42.80;;;;;;5058635;28;20033;-46
2021/08/01 09:48:46;;;;;;;7.35;5.57;;;32.30;42.40;;;;;;5058732;28;20535;-43
2021/08/01 09:51:12;;;;;;;11.30;6.80;;;32.30;42.70;;;;;;5058613;28;20108;-46
2021/08/01 09:53:41;;;;;;;19.35;6.20;;;32.40;43.60;;;;;;5059137;28;20120;-48
2021/08/01 09:56:21;;;;;;;9.40;6.00;;;32.50;43.80;;;;;;5058562;28;20131;-44
2021/08/01 09:58:49;;;;;;;8.48;6.25;;;32.50;43.60;;;;;;5058926;28;20033;-49
2021/08/01 10:01:15;;;;;;;8.80;5.72;;;32.50;43.60;;;;;;5058337;28;20105;-42
2021/08/01 10:03:49;;;;;;;10.35;6.28;;;32.60;42.90;;;;;;5058433;28;20064;-44
2021/08/01 10:06:17;;;;;;;14.93;8.32;;;32.70;43.00;;;;;;5058444;28;20028;-47
2021/08/01 10:08:44;;;;;;;10.05;6.78;;;32.70;43.30;;;;;;5058703;28;20037;-42
2021/08/01 10:11:19;;;;;;;13.48;7.88;;;32.70;43.80;;;;;;5058830;28;20099;-49
2021/08/01 10:13:46;;;;;;;8.77;6.10;;;32.80;44.00;;;;;;5058813;28;20033;-48
2021/08/01 10:16:13;;;;;;;8.98;5.53;;;32.90;43.00;;;;;;5058100;28;20044;-43
2021/08/01 10:18:40;;;;;;;13.80;6.40;;;32.90;43.00;;;;;;5058599;28;20037;-44
2021/08/01 10:21:08;;;;;;;10.35;5.85;;;32.90;43.10;;;;;;5058253;28;20040;-46
2021/08/01 10:23:38;;;;;;;9.25;5.95;;;33.00;42.20;;;;;;5057883;28;20321;-46
2021/08/01 10:26:06;;;;;;;10.05;5.47;;;33.00;42.40;;;;;;5057375;28;20047;-46
2021/08/01 10:28:34;;;;;;;8.77;5.72;;;33.00;42.20;;;;;;5057679;28;20033;-47
2021/08/01 10:31:02;;;;;;;9.75;5.95;;;33.00;42.50;;;;;;5056471;28;20021;-45
2021/08/01 10:33:35;;;;;;;9.20;5.55;;;33.10;42.20;;;;;;5057849;28;20037;-45
2021/08/01 10:36:03;;;;;;;20.63;6.45;;;33.10;42.10;;;;;;5057608;28;20032;-47
2021/08/01 10:38:34;;;;;;;13.43;5.32;;;33.10;42.20;;;;;;5057712;28;20124;-46
2021/08/01 10:41:01;;;;;;;11.40;6.00;;;33.20;41.50;;;;;;5057737;28;20057;-45
2021/08/01 10:43:30;;;;;;;9.77;6.00;;;33.30;41.50;;;;;;5057943;28;20294;-43
2021/08/01 10:45:57;;;;;;;10.02;5.75;;;33.30;41.50;;;;;;5057627;28;20033;-48
2021/08/01 10:48:25;;;;;;;9.00;6.07;;;33.40;41.80;;;;;;5057952;28;20025;-43
2021/08/01 10:50:51;;;;;;;11.95;5.95;;;33.40;42.00;;;;;;5058160;28;20052;-45
2021/08/01 10:53:30;;;;;;;11.27;6.05;;;33.40;42.20;;;;;;5057637;28;20159;-46
2021/08/01 10:56:17;;;;;;;11.25;7.72;;;33.40;42.30;;;;;;5056356;28;20033;-44
2021/08/01 10:58:43;;;;;;;9.60;6.60;;;33.40;42.80;;;;;;5057796;28;20112;-42
2021/08/01 11:01:09;;;;;;;19.77;7.32;;;33.40;42.80;;;;;;5057370;28;20108;-42
2021/08/01 11:03:39;;;;;;;11.98;6.65;;;33.40;43.00;;;;;;5057171;28;20031;-44
2021/08/01 11:06:25;;;;;;;11.05;6.32;;;33.40;43.30;;;;;;5057390;28;20359;-43
2021/08/01 11:09:26;;;;;;;15.90;6.93;;;33.50;43.60;;;;;;5057607;28;20071;-45
2021/08/01 11:12:19;;;;;;;9.10;6.72;;;33.50;43.60;;;;;;5055026;28;20111;-46
2021/08/01 11:14:47;;;;;;;15.35;8.00;;;33.60;44.00;;;;;;5056684;28;20037;-46
2021/08/01 11:17:13;;;;;;;9.85;5.82;;;33.60;44.20;;;;;;5057454;28;20114;-45
2021/08/01 11:19:38;;;;;;;8.57;6.18;;;33.60;43.30;;;;;;5057240;28;20429;-43
2021/08/01 11:22:04;;;;;;;11.55;5.97;;;33.70;43.10;;;;;;5056959;28;20317;-47
2021/08/01 11:24:30;;;;;;;9.48;6.20;;;33.80;42.90;;;;;;5056953;28;20184;-42
2021/08/01 11:27:05;;;;;;;11.50;5.85;;;33.90;42.60;;;;;;5057149;28;20025;-42
2021/08/01 11:29:30;;;;;;;8.93;5.85;;;34.00;42.40;;;;;;5056711;28;20055;-44
2021/08/01 11:32:07;;;;;;;11.10;5.68;;;34.10;42.70;;;;;;5056994;28;20142;-47
2021/08/01 11:34:33;;;;;;;10.77;5.88;;;34.20;42.00;;;;;;5056591;28;20033;-47
2021/08/01 11:37:16;;;;;;;11.88;6.20;;;34.20;41.40;;;;;;5056886;28;20037;-42
2021/08/01 11:39:54;;;;;;;11.30;6.03;;;34.30;41.10;;;;;;5056337;28;20322;-47
2021/08/01 11:42:25;;;;;;;7.80;5.80;;;34.40;41.00;;;;;;5056234;28;20319;-45
2021/08/01 11:45:06;;;;;;;9.77;5.90;;;34.50;41.00;;;;;;5056527;28;20032;-47
2021/08/01 11:47:42;;;;;;;14.40;7.05;;;34.60;41.20;;;;;;5056495;28;20041;-50
2021/08/01 11:50:11;;;;;;;9.75;5.82;;;34.70;40.90;;;;;;5056140;28;20049;-50
2021/08/01 11:52:45;;;;;;;10.95;7.55;;;34.80;41.30;;;;;;5056743;28;20063;-50
2021/08/01 11:55:16;;;;;;;9.85;5.95;;;34.80;40.80;;;;;;5055244;28;20320;-44
2021/08/01 11:57:44;;;;;;;25.02;6.85;;;34.90;40.70;;;;;;5056701;28;20440;-42
2021/08/01 12:00:11;;;;;;;13.13;5.78;;;35.10;40.60;;;;;;5056242;28;20083;-44
2021/08/01 12:02:38;;;;;;;11.95;6.55;;;35.20;40.60;;;;;;5056383;28;20057;-46
2021/08/01 12:05:04;;;;;;;12.15;6.35;;;35.30;40.80;;;;;;5056094;28;20036;-42
2021/08/01 12:07:44;;;;;;;11.18;6.15;;;35.40;40.10;;;;;;5056082;28;20029;-50
2021/08/01 12:10:17;;;;;;;9.43;5.57;;;35.50;40.20;;;;;;5055987;28;20040;-43
2021/08/01 12:12:43;;;;;;;9.25;5.38;;;35.60;39.00;;;;;;5056164;28;20027;-45
2021/08/01 12:15:09;;;;;;;10.10;5.80;;;35.80;38.50;;;;;;5056225;28;20033;-47
2021/08/01 12:17:36;;;;;;;7.45;5.30;;;35.90;38.20;;;;;;5056484;28;20033;-45
2021/08/01 12:20:03;;;;;;;7.35;5.88;;;35.90;37.80;;;;;;5055927;28;20079;-44
2021/08/01 12:22:29;;;;;;;14.25;5.03;;;36.00;37.50;;;;;;5056120;28;20036;-46
2021/08/01 12:24:57;;;;;;;12.18;5.45;;;36.10;37.40;;;;;;5055726;28;20417;-50
2021/08/01 12:27:28;;;;;;;7.80;5.15;;;36.20;37.70;;;;;;5054713;28;20071;-46
2021/08/01 12:29:55;;;;;;;9.25;5.70;;;36.20;37.60;;;;;;5056051;28;20109;-48
2021/08/01 12:32:30;;;;;;;9.75;5.43;;;36.30;37.60;;;;;;5056032;28;20029;-44
2021/08/01 12:35:10;;;;;;;6.80;5.88;;;36.40;37.70;;;;;;5055862;28;20052;-44
2021/08/01 12:37:59;;;;;;;7.30;5.40;;;36.50;37.90;;;;;;5056104;28;20033;-49
2021/08/01 12:40:29;;;;;;;6.35;5.18;;;36.60;37.70;;;;;;5055340;28;20049;-46
2021/08/01 12:43:10;;;;;;;7.63;5.65;;;36.70;37.40;;;;;;5055907;28;20100;-43
2021/08/01 12:45:41;;;;;;;8.07;5.00;;;36.80;37.00;;;;;;5056006;28;20029;-46